createdAt,value
2019-04-16T00:01:37.774Z,8.43
2019-04-16T00:04:32.524Z,10.95
2019-04-16T00:07:31.710Z,8.55
2019-04-16T00:10:10.388Z,8.38
2019-04-16T00:13:02.345Z,12.35
2019-04-16T00:15:36.070Z,9.18
2019-04-16T00:18:09.897Z,12.45
2019-04-16T00:20:56.155Z,9.63
2019-04-16T00:23:46.700Z,9.78
2019-04-16T00:26:20.074Z,9.03
2019-04-16T00:28:53.480Z,13.03
2019-04-16T00:31:27.400Z,8.75
2019-04-16T00:34:00.495Z,12.23
2019-04-16T00:36:33.499Z,9.63
2019-04-16T00:39:08.386Z,9.73
2019-04-16T00:41:42.047Z,10.43
2019-04-16T00:44:16.089Z,10.72
2019-04-16T00:46:49.443Z,12.18
2019-04-16T00:49:26.337Z,14.43
2019-04-16T00:51:56.841Z,9.00
2019-04-16T00:54:30.091Z,10.25
2019-04-16T00:59:34.043Z,7.58
2019-04-16T01:02:07.114Z,11.12
2019-04-16T01:04:40.507Z,8.73
2019-04-16T01:07:13.813Z,9.20
2019-04-16T01:09:47.277Z,8.75
2019-04-16T01:12:20.332Z,15.13
2019-04-16T01:14:53.023Z,7.37
2019-04-16T01:17:26.386Z,11.63
2019-04-16T01:20:01.389Z,9.40
2019-04-16T01:22:37.592Z,9.30
2019-04-16T01:25:10.335Z,10.32
2019-04-16T01:27:49.623Z,12.88
2019-04-16T01:30:36.628Z,10.08
2019-04-16T01:33:24.872Z,9.33
2019-04-16T01:36:10.317Z,9.23
2019-04-16T01:38:49.952Z,9.55
2019-04-16T01:41:23.021Z,12.10
2019-04-16T01:43:57.093Z,11.18
2019-04-16T01:46:32.794Z,9.63
2019-04-16T01:49:09.762Z,9.45
2019-04-16T01:51:44.629Z,11.65
2019-04-16T01:54:22.527Z,9.98
2019-04-16T01:57:01.145Z,11.80
2019-04-16T01:59:36.455Z,10.28
2019-04-16T02:02:14.560Z,8.05
2019-04-16T02:04:51.860Z,8.80
2019-04-16T02:07:27.724Z,11.63
2019-04-16T02:10:00.707Z,9.55
2019-04-16T02:12:34.813Z,7.55
2019-04-16T02:15:09.594Z,12.15
2019-04-16T02:17:42.960Z,9.20
2019-04-16T02:20:16.072Z,9.40
2019-04-16T02:22:49.290Z,8.38
2019-04-16T02:25:23.135Z,12.40
2019-04-16T02:27:57.655Z,11.38
2019-04-16T02:30:37.594Z,10.25
2019-04-16T02:33:11.243Z,9.43
2019-04-16T02:35:44.364Z,8.60
2019-04-16T02:38:17.928Z,9.55
2019-04-16T02:43:23.937Z,6.55
2019-04-16T02:45:58.829Z,10.75
2019-04-16T02:48:33.954Z,11.00
2019-04-16T02:51:16.977Z,10.70
2019-04-16T02:54:00.005Z,8.73
2019-04-16T02:57:04.825Z,9.40
2019-04-16T02:59:45.692Z,10.20
2019-04-16T03:02:38.864Z,10.93
2019-04-16T03:05:31.474Z,11.03
2019-04-16T03:08:05.848Z,7.72
2019-04-16T03:10:56.274Z,8.93
2019-04-16T03:13:29.893Z,10.80
2019-04-16T03:16:22.737Z,9.67
2019-04-16T03:19:00.787Z,8.83
2019-04-16T03:21:33.613Z,8.63
2019-04-16T03:24:09.104Z,11.38
2019-04-16T03:26:47.508Z,9.97
2019-04-16T03:29:18.631Z,10.77
2019-04-16T03:31:58.041Z,10.00
2019-04-16T03:34:28.938Z,14.67
2019-04-16T03:37:03.081Z,9.03
2019-04-16T03:39:36.671Z,9.37
2019-04-16T03:42:09.662Z,11.83
2019-04-16T03:44:42.692Z,13.03
2019-04-16T03:47:19.137Z,10.98
2019-04-16T03:49:50.504Z,10.53
2019-04-16T03:52:23.257Z,11.35
2019-04-16T03:54:56.056Z,10.55
2019-04-16T03:57:32.647Z,6.62
2019-04-16T04:00:12.276Z,11.13
2019-04-16T04:02:44.445Z,15.63
2019-04-16T04:05:17.308Z,9.30
2019-04-16T04:07:50.735Z,11.50
2019-04-16T04:10:30.742Z,8.80
2019-04-16T04:13:04.743Z,11.07
2019-04-16T04:15:35.981Z,12.73
2019-04-16T04:18:11.671Z,8.60
2019-04-16T04:20:49.642Z,7.57
2019-04-16T04:23:19.245Z,9.20
2019-04-16T04:25:52.701Z,11.63
2019-04-16T04:28:25.811Z,8.53
2019-04-16T04:31:00.971Z,8.93
2019-04-16T04:33:43.105Z,11.47
2019-04-16T04:36:19.577Z,13.83
2019-04-16T04:38:51.807Z,12.47
2019-04-16T04:41:24.945Z,12.33
2019-04-16T04:44:03.893Z,10.77
2019-04-16T04:46:33.722Z,10.50
2019-04-16T04:49:06.253Z,11.03
2019-04-16T04:51:42.678Z,12.47
2019-04-16T04:54:14.942Z,8.97
2019-04-16T04:56:48.039Z,7.37
2019-04-16T04:59:20.821Z,13.40
2019-04-16T05:01:53.577Z,12.45
2019-04-16T05:04:45.266Z,9.28
2019-04-16T05:07:18.332Z,10.20
2019-04-16T05:12:22.838Z,8.33
2019-04-16T05:14:58.450Z,12.03
2019-04-16T05:17:31.713Z,11.43
2019-04-16T05:20:03.993Z,15.77
2019-04-16T05:22:36.765Z,17.05
2019-04-16T05:25:10.543Z,14.20
2019-04-16T05:27:43.881Z,15.00
2019-04-16T05:30:20.437Z,17.27
2019-04-16T05:32:50.226Z,18.07
2019-04-16T05:35:23.706Z,15.23
2019-04-16T05:37:56.901Z,17.33
2019-04-16T05:40:34.242Z,17.63
2019-04-16T05:43:04.725Z,19.83
2019-04-16T05:45:37.944Z,24.50
2019-04-16T05:48:11.340Z,27.17
2019-04-16T05:50:45.712Z,25.57
2019-04-16T05:53:18.801Z,34.80
2019-04-16T05:56:06.540Z,29.30
2019-04-16T05:58:39.422Z,19.83
2019-04-16T06:01:31.070Z,32.48
2019-04-16T06:04:18.811Z,19.67
2019-04-16T06:07:12.049Z,25.40
2019-04-16T06:09:45.340Z,20.48
2019-04-16T06:12:19.055Z,15.63
2019-04-16T06:15:00.631Z,17.97
2019-04-16T06:18:05.434Z,15.73
2019-04-16T06:20:52.534Z,14.43
2019-04-16T06:23:48.138Z,17.30
2019-04-16T06:26:54.055Z,14.77
2019-04-16T06:29:36.926Z,14.68
2019-04-16T06:32:33.362Z,11.73
2019-04-16T06:35:43.034Z,16.00
2019-04-16T06:38:34.870Z,13.67
2019-04-16T06:41:41.624Z,16.25
2019-04-16T06:44:13.019Z,14.70
2019-04-16T06:46:58.091Z,12.53
2019-04-16T06:49:56.285Z,13.68
2019-04-16T06:52:48.929Z,10.68
2019-04-16T06:55:42.850Z,12.95
2019-04-16T06:58:20.495Z,12.85
2019-04-16T07:01:12.697Z,13.53
2019-04-16T07:04:00.948Z,9.80
2019-04-16T07:07:08.055Z,9.38
2019-04-16T07:10:11.087Z,9.95
2019-04-16T07:12:45.283Z,12.70
2019-04-16T07:15:24.082Z,10.03
2019-04-16T07:17:55.934Z,11.88
2019-04-16T07:20:29.416Z,11.00
2019-04-16T07:25:39.977Z,12.33
2019-04-16T07:28:34.847Z,9.88
2019-04-16T07:31:32.871Z,11.75
2019-04-16T07:34:18.663Z,12.70
2019-04-16T07:37:22.593Z,9.58
2019-04-16T07:40:33.542Z,14.10
2019-04-16T07:43:25.060Z,15.00
2019-04-16T07:46:25.899Z,15.68
2019-04-16T07:49:11.309Z,18.37
2019-04-16T07:51:55.157Z,11.38
2019-04-16T07:57:33.127Z,12.13
2019-04-16T08:00:09.496Z,13.40
2019-04-16T08:02:41.822Z,16.00
2019-04-16T08:07:49.740Z,12.47
2019-04-16T08:10:22.919Z,11.60
2019-04-16T08:13:09.500Z,11.50
2019-04-16T08:15:42.322Z,16.25
2019-04-16T08:18:15.356Z,11.75
2019-04-16T08:21:00.298Z,14.50
2019-04-16T08:23:34.449Z,15.85
2019-04-16T08:26:13.308Z,14.87
2019-04-16T08:28:44.189Z,10.48
2019-04-16T08:31:20.857Z,11.90
2019-04-16T08:33:54.107Z,15.05
2019-04-16T08:36:27.309Z,12.13
2019-04-16T08:39:05.896Z,13.45
2019-04-16T08:41:36.414Z,11.35
2019-04-16T08:44:10.667Z,14.60
2019-04-16T08:46:44.763Z,15.65
2019-04-16T08:49:22.102Z,10.55
2019-04-16T08:51:54.581Z,12.60
2019-04-16T08:54:28.434Z,11.10
2019-04-16T08:57:01.170Z,11.15
2019-04-16T08:59:34.593Z,12.60
2019-04-16T09:02:07.664Z,15.05
2019-04-16T09:04:41.096Z,13.72
2019-04-16T09:07:33.204Z,16.27
2019-04-16T09:10:17.653Z,13.83
2019-04-16T09:12:50.817Z,12.33
2019-04-16T09:15:30.878Z,10.85
2019-04-16T09:18:37.962Z,14.53
2019-04-16T09:21:11.797Z,12.63
2019-04-16T09:24:08.576Z,14.10
2019-04-16T09:27:00.413Z,11.83
2019-04-16T09:29:51.226Z,11.30
2019-04-16T09:32:44.693Z,13.37
2019-04-16T09:35:23.860Z,16.03
2019-04-16T09:38:12.989Z,14.33
2019-04-16T09:41:04.618Z,11.87
2019-04-16T09:43:41.688Z,10.93
2019-04-16T09:46:21.062Z,12.17
2019-04-16T09:48:50.293Z,13.30
2019-04-16T09:51:25.337Z,12.40
2019-04-16T09:53:58.418Z,11.47
2019-04-16T09:56:32.259Z,11.03
2019-04-16T09:59:10.978Z,12.17
2019-04-16T10:01:50.833Z,12.53
2019-04-16T10:04:23.997Z,12.77
2019-04-16T10:06:56.754Z,13.40
2019-04-16T10:12:00.434Z,11.33
2019-04-16T10:14:33.481Z,17.50
2019-04-16T10:17:07.757Z,10.57
2019-04-16T10:19:43.399Z,14.60
2019-04-16T10:22:15.807Z,10.67
2019-04-16T10:25:16.659Z,12.73
2019-04-16T10:27:54.079Z,10.95
2019-04-16T10:30:55.360Z,11.18
2019-04-16T10:33:29.057Z,12.10
2019-04-16T10:36:06.161Z,12.93
2019-04-16T10:38:58.729Z,13.57
2019-04-16T10:41:39.576Z,12.95
2019-04-16T10:44:43.867Z,13.03
2019-04-16T10:47:44.599Z,10.50
2019-04-16T10:50:34.034Z,12.10
2019-04-16T10:53:20.943Z,12.20
2019-04-16T10:56:12.628Z,15.00
2019-04-16T10:59:05.819Z,12.43
2019-04-16T11:01:55.152Z,14.10
2019-04-16T11:04:45.981Z,11.57
2019-04-16T11:07:23.183Z,12.20
2019-04-16T11:09:57.652Z,11.60
2019-04-16T11:12:31.392Z,12.43
2019-04-16T11:15:05.697Z,15.70
2019-04-16T11:17:39.050Z,11.90
2019-04-16T11:20:12.858Z,11.47
2019-04-16T11:22:45.287Z,10.40
2019-04-16T11:25:18.091Z,10.85
2019-04-16T11:27:51.053Z,13.08
2019-04-16T11:30:49.399Z,14.35
2019-04-16T11:33:22.713Z,13.45
2019-04-16T11:35:55.762Z,11.70
2019-04-16T11:38:27.938Z,15.48
2019-04-16T11:43:31.827Z,11.73
2019-04-16T11:46:04.432Z,12.20
2019-04-16T11:48:38.171Z,11.85
2019-04-16T11:51:11.465Z,9.90
2019-04-16T11:53:44.524Z,13.57
2019-04-16T11:56:17.939Z,12.00
2019-04-16T11:58:51.733Z,12.33
2019-04-16T12:01:34.615Z,10.60
2019-04-16T12:04:26.106Z,12.50
2019-04-16T12:07:09.118Z,10.53
2019-04-16T12:10:10.188Z,10.60
2019-04-16T12:12:56.300Z,11.47
2019-04-16T12:15:44.476Z,11.10
2019-04-16T12:18:33.828Z,11.70
2019-04-16T12:21:10.215Z,12.03
2019-04-16T12:23:53.289Z,12.43
2019-04-16T12:27:03.291Z,12.70
2019-04-16T12:29:47.512Z,15.20
2019-04-16T12:32:39.433Z,8.67
2019-04-16T12:35:19.927Z,11.15
2019-04-16T12:38:26.797Z,11.53
2019-04-16T12:41:20.892Z,12.47
2019-04-16T12:44:23.946Z,9.53
2019-04-16T12:47:14.578Z,12.03
2019-04-16T12:50:01.253Z,13.05
2019-04-16T12:52:45.640Z,12.18
2019-04-16T12:55:55.621Z,13.20
2019-04-16T12:58:40.471Z,12.98
2019-04-16T13:01:25.148Z,11.87
2019-04-16T13:04:26.234Z,13.47
2019-04-16T13:07:04.279Z,10.43
2019-04-16T13:10:14.091Z,11.43
2019-04-16T13:13:00.589Z,9.40
2019-04-16T13:15:50.904Z,12.63
2019-04-16T13:18:45.420Z,10.97
2019-04-16T13:21:20.785Z,11.83
2019-04-16T13:23:58.662Z,12.30
2019-04-16T13:26:37.544Z,16.80
2019-04-16T13:29:17.073Z,10.40
2019-04-16T13:31:49.326Z,13.07
2019-04-16T13:34:23.710Z,11.27
2019-04-16T13:36:59.613Z,15.27
2019-04-16T13:39:50.827Z,11.33
2019-04-16T13:42:23.296Z,8.80
2019-04-16T13:45:16.639Z,11.65
2019-04-16T13:47:48.567Z,10.58
2019-04-16T13:50:40.944Z,12.25
2019-04-16T13:53:41.417Z,12.23
2019-04-16T13:56:23.685Z,8.50
2019-04-16T13:59:04.700Z,10.75
2019-04-16T14:01:46.061Z,10.43
2019-04-16T14:04:18.382Z,10.63
2019-04-16T14:06:51.071Z,11.63
2019-04-16T14:09:23.800Z,13.53
2019-04-16T14:11:56.758Z,8.77
2019-04-16T14:14:29.509Z,9.50
2019-04-16T14:17:10.004Z,11.93
2019-04-16T14:19:38.679Z,11.60
2019-04-16T14:22:12.017Z,9.50
2019-04-16T14:24:44.704Z,9.73
2019-04-16T14:27:17.060Z,8.97
2019-04-16T14:29:50.147Z,10.50
2019-04-16T14:32:23.238Z,11.00
2019-04-16T14:34:58.970Z,11.93
2019-04-16T14:37:32.323Z,10.80
2019-04-16T14:40:15.402Z,9.47
2019-04-16T14:42:48.442Z,9.47
2019-04-16T14:45:53.519Z,8.70
2019-04-16T14:48:11.092Z,9.90
2019-04-16T14:50:44.232Z,10.73
2019-04-16T14:53:42.448Z,10.03
2019-04-16T14:56:27.167Z,11.40
2019-04-16T14:59:33.002Z,11.93
2019-04-16T15:02:11.616Z,12.10
2019-04-16T15:05:02.282Z,9.77
2019-04-16T15:07:54.157Z,9.70
2019-04-16T15:10:45.524Z,10.65
2019-04-16T15:13:25.360Z,9.03
2019-04-16T15:16:22.215Z,11.03
2019-04-16T15:19:11.768Z,8.78
2019-04-16T15:22:04.361Z,8.95
2019-04-16T15:24:48.297Z,12.37
2019-04-16T15:27:49.747Z,10.70
2019-04-16T15:31:00.654Z,8.90
2019-04-16T15:33:46.175Z,9.17
2019-04-16T15:36:23.155Z,11.47
2019-04-16T15:39:15.851Z,11.13
2019-04-16T15:42:20.389Z,11.13
2019-04-16T15:45:02.128Z,8.60
2019-04-16T15:48:00.271Z,9.23
2019-04-16T15:51:04.330Z,11.70
2019-04-16T15:53:44.910Z,9.85
2019-04-16T15:56:45.212Z,9.80
2019-04-16T15:59:30.402Z,8.35
2019-04-16T16:02:15.277Z,8.87
2019-04-16T16:04:56.146Z,10.80
2019-04-16T16:07:32.466Z,8.60
2019-04-16T16:10:23.396Z,9.03
2019-04-16T16:12:57.301Z,8.43
2019-04-16T16:15:30.827Z,11.23
2019-04-16T16:18:04.533Z,9.10
2019-04-16T16:20:37.660Z,9.13
2019-04-16T16:23:11.346Z,10.30
2019-04-16T16:25:44.414Z,9.77
2019-04-16T16:28:17.207Z,8.80
2019-04-16T16:30:50.210Z,7.83
2019-04-16T16:33:23.786Z,9.57
2019-04-16T16:35:59.389Z,8.23
2019-04-16T16:38:31.593Z,10.03
2019-04-16T16:41:04.612Z,9.03
2019-04-16T16:43:37.798Z,9.00
2019-04-16T16:46:32.555Z,10.53
2019-04-16T16:49:06.224Z,8.37
2019-04-16T16:51:41.233Z,8.47
2019-04-16T16:54:23.480Z,10.27
2019-04-16T16:57:15.124Z,7.45
2019-04-16T17:00:09.932Z,6.60
2019-04-16T17:03:01.430Z,11.73
2019-04-16T17:05:38.490Z,8.93
2019-04-16T17:08:12.272Z,10.67
2019-04-16T17:10:46.615Z,11.43
2019-04-16T17:13:21.203Z,12.30
2019-04-16T17:15:54.954Z,9.00
2019-04-16T17:18:28.329Z,17.37
2019-04-16T17:21:01.826Z,10.47
2019-04-16T17:23:34.592Z,9.23
2019-04-16T17:26:07.572Z,7.77
2019-04-16T17:28:43.404Z,9.60
2019-04-16T17:31:16.213Z,9.40
2019-04-16T17:33:50.177Z,8.63
2019-04-16T17:36:23.480Z,8.07
2019-04-16T17:38:57.422Z,9.50
2019-04-16T17:41:35.577Z,8.30
2019-04-16T17:44:27.469Z,8.63
2019-04-16T17:47:19.518Z,9.77
2019-04-16T17:50:02.597Z,7.67
2019-04-16T17:52:59.408Z,9.87
2019-04-16T17:55:50.359Z,14.93
2019-04-16T17:58:29.807Z,9.20
2019-04-16T18:01:22.981Z,9.83
2019-04-16T18:06:56.920Z,10.30
2019-04-16T18:12:41.538Z,9.05
2019-04-16T18:15:20.032Z,8.07
2019-04-16T18:18:05.777Z,9.97
2019-04-16T18:20:59.359Z,7.93
2019-04-16T18:23:47.835Z,8.03
2019-04-16T18:26:40.244Z,9.53
2019-04-16T18:29:25.180Z,8.10
2019-04-16T18:32:30.862Z,8.13
2019-04-16T18:35:18.903Z,7.97
2019-04-16T18:38:01.554Z,7.45
2019-04-16T18:40:51.813Z,12.45
2019-04-16T18:43:34.954Z,8.93
2019-04-16T18:46:30.909Z,5.95
2019-04-16T18:49:19.491Z,6.10
2019-04-16T18:51:53.464Z,6.67
2019-04-16T18:54:26.794Z,9.40
2019-04-16T18:57:01.384Z,12.07
2019-04-16T18:59:35.313Z,9.45
2019-04-16T19:02:09.756Z,6.60
2019-04-16T19:04:44.659Z,9.18
2019-04-16T19:07:18.497Z,7.17
2019-04-16T19:09:52.571Z,5.78
2019-04-16T19:12:26.885Z,5.95
2019-04-16T19:15:01.662Z,8.58
2019-04-16T19:17:35.693Z,9.40
2019-04-16T19:20:09.035Z,6.83
2019-04-16T19:25:14.116Z,7.45
2019-04-16T19:27:49.118Z,6.70
2019-04-16T19:30:23.692Z,7.30
2019-04-16T19:33:00.564Z,4.97
2019-04-16T19:35:33.046Z,9.60
2019-04-16T19:38:07.569Z,8.35
2019-04-16T19:40:41.353Z,8.80
2019-04-16T19:43:15.009Z,9.78
2019-04-16T19:45:48.351Z,6.83
2019-04-16T19:50:55.650Z,6.10
2019-04-16T19:53:29.355Z,6.20
2019-04-16T19:56:02.888Z,7.95
2019-04-16T19:58:35.998Z,7.37
2019-04-16T20:01:11.955Z,7.85
2019-04-16T20:03:44.951Z,8.00
2019-04-16T20:06:18.888Z,9.15
2019-04-16T20:08:51.524Z,6.90
2019-04-16T20:11:24.654Z,8.25
2019-04-16T20:14:01.110Z,7.75
2019-04-16T20:16:32.983Z,7.30
2019-04-16T20:19:06.993Z,8.40
2019-04-16T20:21:40.339Z,7.50
2019-04-16T20:26:45.611Z,7.72
2019-04-16T20:29:19.319Z,6.45
2019-04-16T20:31:53.459Z,8.88
2019-04-16T20:34:27.465Z,7.85
2019-04-16T20:37:00.844Z,6.47
2019-04-16T20:42:05.948Z,5.90
2019-04-16T20:44:40.175Z,9.85
2019-04-16T20:47:14.477Z,12.93
2019-04-16T20:49:53.761Z,8.83
2019-04-16T20:52:30.859Z,9.18
2019-04-16T20:55:03.409Z,10.63
2019-04-16T21:00:12.712Z,9.08
2019-04-16T21:02:48.175Z,9.25
2019-04-16T21:05:22.716Z,8.03
2019-04-16T21:07:56.028Z,8.00
2019-04-16T21:10:29.181Z,10.45
2019-04-16T21:15:34.102Z,6.50
2019-04-16T21:18:11.850Z,12.80
2019-04-16T21:20:43.872Z,7.75
2019-04-16T21:23:17.447Z,7.35
2019-04-16T21:25:51.609Z,9.25
2019-04-16T21:28:47.537Z,8.68
2019-04-16T21:31:24.946Z,7.87
2019-04-16T21:34:07.815Z,6.95
2019-04-16T21:36:46.812Z,7.42
2019-04-16T21:39:33.730Z,7.37
2019-04-16T21:42:07.310Z,9.05
2019-04-16T21:44:41.403Z,10.95
2019-04-16T21:47:16.622Z,6.58
2019-04-16T21:49:50.790Z,9.05
2019-04-16T21:52:24.715Z,7.37
2019-04-16T21:55:02.465Z,7.70
2019-04-16T21:57:33.543Z,7.97
2019-04-16T22:00:14.573Z,11.30
2019-04-16T22:02:48.907Z,6.55
2019-04-16T22:05:22.712Z,7.30
2019-04-16T22:07:58.240Z,6.70
2019-04-16T22:10:31.946Z,7.28
2019-04-16T22:15:37.803Z,6.15
2019-04-16T22:18:11.262Z,7.58
2019-04-16T22:23:18.993Z,4.33
2019-04-16T22:25:50.633Z,8.05
2019-04-16T22:28:24.996Z,10.15
2019-04-16T22:30:58.118Z,8.35
2019-04-16T22:33:31.473Z,7.17
2019-04-16T22:36:05.923Z,9.65
2019-04-16T22:38:40.917Z,7.65
2019-04-16T22:41:29.526Z,8.98
2019-04-16T22:44:13.879Z,5.85
2019-04-16T22:46:50.616Z,8.40
2019-04-16T22:49:24.155Z,6.08
2019-04-16T22:51:58.225Z,7.25
2019-04-16T22:54:31.942Z,7.20
2019-04-16T22:57:07.291Z,7.30
2019-04-16T22:59:40.647Z,7.92
2019-04-16T23:02:32.397Z,8.78
2019-04-16T23:05:05.919Z,6.58
2019-04-16T23:07:40.360Z,7.15
2019-04-16T23:10:14.359Z,8.63
2019-04-16T23:12:47.435Z,9.63
2019-04-16T23:15:20.973Z,6.15
2019-04-16T23:17:55.537Z,8.48
2019-04-16T23:20:30.067Z,6.80
2019-04-16T23:23:04.466Z,7.08
2019-04-16T23:25:38.247Z,10.68
2019-04-16T23:28:11.859Z,8.05
2019-04-16T23:30:48.012Z,8.30
2019-04-16T23:33:20.357Z,9.70
2019-04-16T23:35:54.049Z,9.33
2019-04-16T23:38:31.209Z,9.23
2019-04-16T23:41:02.979Z,7.55
2019-04-16T23:43:54.374Z,8.93
2019-04-16T23:46:43.979Z,7.17
2019-04-16T23:49:44.940Z,7.30
2019-04-16T23:52:31.895Z,6.78
2019-04-16T23:55:06.596Z,9.68
2019-04-16T23:58:00.881Z,8.05
